createdAt,value
2023-01-19T00:01:15.191Z,96375.66
2023-01-19T00:03:17.971Z,96374.59
2023-01-19T00:05:19.311Z,96378.56
2023-01-19T00:07:20.650Z,96375.78
2023-01-19T00:09:22.738Z,96383.28
2023-01-19T00:11:24.063Z,96388.50
2023-01-19T00:13:25.400Z,96391.88
2023-01-19T00:15:26.740Z,96399.53
2023-01-19T00:17:28.041Z,96404.72
2023-01-19T00:19:29.366Z,96399.69
2023-01-19T00:21:30.658Z,96401.47
2023-01-19T00:23:32.035Z,96403.28
2023-01-19T00:25:33.331Z,96410.19
2023-01-19T00:27:35.051Z,96402.69
2023-01-19T00:29:36.516Z,96407.09
2023-01-19T00:31:37.933Z,96399.75
2023-01-19T00:33:39.383Z,96410.13
2023-01-19T00:35:42.488Z,96406.13
2023-01-19T00:37:46.169Z,96407.03
2023-01-19T00:39:47.521Z,96412.28
2023-01-19T00:42:07.691Z,96414.84
2023-01-19T00:44:08.996Z,96417.53
2023-01-19T00:46:10.330Z,96416.78
2023-01-19T00:48:11.699Z,96416.09
2023-01-19T00:50:13.023Z,96421.25
2023-01-19T00:52:14.374Z,96422.97
2023-01-19T00:54:15.710Z,96422.22
2023-01-19T00:56:17.486Z,96419.81
2023-01-19T00:58:18.836Z,96417.34
2023-01-19T01:00:20.161Z,96423.28
2023-01-19T01:02:21.593Z,96428.31
2023-01-19T01:04:22.982Z,96429.13
2023-01-19T01:06:24.274Z,96425.75
2023-01-19T01:08:25.578Z,96433.31
2023-01-19T01:10:26.892Z,96426.59
2023-01-19T01:12:28.735Z,96437.63
2023-01-19T01:14:30.143Z,96430.72
2023-01-19T01:16:31.528Z,96435.47
2023-01-19T01:18:32.866Z,96430.16
2023-01-19T01:20:34.847Z,96429.03
2023-01-19T01:22:36.230Z,96433.03
2023-01-19T01:24:38.262Z,96440.41
2023-01-19T01:26:39.699Z,96442.81
2023-01-19T01:28:41.035Z,96439.88
2023-01-19T01:30:43.526Z,96438.75
2023-01-19T01:32:44.902Z,96437.91
2023-01-19T01:34:46.243Z,96434.69
2023-01-19T01:36:47.601Z,96443.31
2023-01-19T01:38:48.941Z,96447.69
2023-01-19T01:40:50.322Z,96446.06
2023-01-19T01:42:51.656Z,96444.44
2023-01-19T01:44:53.151Z,96445.22
2023-01-19T01:46:54.453Z,96450.47
2023-01-19T01:48:55.786Z,96452.78
2023-01-19T01:51:15.721Z,96454.59
2023-01-19T01:53:17.057Z,96449.78
2023-01-19T01:55:18.380Z,96453.41
2023-01-19T01:57:19.918Z,96456.00
2023-01-19T01:59:25.926Z,96459.63
2023-01-19T02:01:46.484Z,96452.09
2023-01-19T02:03:47.874Z,96446.84
2023-01-19T02:05:49.193Z,96448.63
2023-01-19T02:08:09.271Z,96437.66
2023-01-19T02:10:29.290Z,96437.00
2023-01-19T02:12:49.206Z,96440.50
2023-01-19T02:14:50.540Z,96439.00
2023-01-19T02:16:51.871Z,96439.84
2023-01-19T02:18:53.216Z,96439.00
2023-01-19T02:20:54.620Z,96452.63
2023-01-19T02:22:55.976Z,96452.38
2023-01-19T02:24:57.277Z,96453.97
2023-01-19T02:26:58.606Z,96458.25
2023-01-19T02:28:59.930Z,96458.25
2023-01-19T02:31:01.282Z,96456.53
2023-01-19T02:33:02.978Z,96458.25
2023-01-19T02:35:04.477Z,96456.47
2023-01-19T02:37:06.789Z,96461.47
2023-01-19T02:39:08.205Z,96465.47
2023-01-19T02:41:09.499Z,96465.94
2023-01-19T02:43:10.807Z,96469.84
2023-01-19T02:45:12.799Z,96475.50
2023-01-19T02:47:14.130Z,96483.91
2023-01-19T02:49:15.422Z,96483.84
2023-01-19T02:51:16.986Z,96494.66
2023-01-19T02:53:18.279Z,96494.53
2023-01-19T02:55:19.833Z,96495.28
2023-01-19T02:57:21.171Z,96492.72
2023-01-19T02:59:23.432Z,96501.88
2023-01-19T03:01:24.896Z,96499.91
2023-01-19T03:03:27.304Z,96506.00
2023-01-19T03:05:28.642Z,96502.78
2023-01-19T03:07:30.408Z,96502.25
2023-01-19T03:09:31.828Z,96504.94
2023-01-19T03:11:33.137Z,96518.03
2023-01-19T03:13:34.505Z,96523.34
2023-01-19T03:15:35.895Z,96525.22
2023-01-19T03:17:37.219Z,96529.56
2023-01-19T03:19:38.551Z,96523.78
2023-01-19T03:21:40.004Z,96539.41
2023-01-19T03:23:41.317Z,96531.13
2023-01-19T03:25:42.646Z,96528.63
2023-01-19T03:27:43.938Z,96530.50
2023-01-19T03:29:46.468Z,96554.47
2023-01-19T03:31:47.781Z,96522.44
2023-01-19T03:33:49.370Z,96525.31
2023-01-19T03:35:50.737Z,96536.75
2023-01-19T03:37:53.047Z,96535.31
2023-01-19T03:39:55.210Z,96540.69
2023-01-19T03:41:56.498Z,96545.03
2023-01-19T03:43:57.849Z,96425.81
2023-01-19T03:45:59.205Z,96544.13
2023-01-19T03:48:00.520Z,96547.66
2023-01-19T03:50:01.810Z,96543.38
2023-01-19T03:52:03.179Z,96545.88
2023-01-19T03:54:05.641Z,96538.13
2023-01-19T03:56:06.977Z,96540.63
2023-01-19T03:58:08.277Z,96536.22
2023-01-19T04:00:09.605Z,96536.75
2023-01-19T04:02:11.069Z,96542.00
2023-01-19T04:04:13.446Z,96532.38
2023-01-19T04:06:14.809Z,96534.50
2023-01-19T04:08:16.114Z,96538.00
2023-01-19T04:10:17.438Z,96532.31
2023-01-19T04:12:18.774Z,96531.72
2023-01-19T04:14:20.066Z,96528.03
2023-01-19T04:16:21.651Z,96527.06
2023-01-19T04:18:22.964Z,96532.19
2023-01-19T04:20:24.450Z,96530.44
2023-01-19T04:22:25.771Z,96526.38
2023-01-19T04:24:28.067Z,96527.41
2023-01-19T04:26:29.643Z,96528.50
2023-01-19T04:28:31.002Z,96522.63
2023-01-19T04:30:32.527Z,96522.78
2023-01-19T04:32:33.871Z,96521.84
2023-01-19T04:34:35.209Z,96528.03
2023-01-19T04:36:36.510Z,96529.16
2023-01-19T04:38:38.531Z,96525.91
2023-01-19T04:40:40.448Z,96522.59
2023-01-19T04:42:41.760Z,96522.72
2023-01-19T04:44:43.102Z,96525.56
2023-01-19T04:46:44.456Z,96533.44
2023-01-19T04:48:45.808Z,96542.97
2023-01-19T04:50:47.537Z,96537.88
2023-01-19T04:52:49.211Z,96530.34
2023-01-19T04:54:50.574Z,96527.03
2023-01-19T04:56:51.919Z,96526.44
2023-01-19T04:58:53.222Z,96526.56
2023-01-19T05:00:54.655Z,96527.53
2023-01-19T05:02:56.053Z,96525.16
2023-01-19T05:04:57.385Z,96547.53
2023-01-19T05:06:58.714Z,96532.47
2023-01-19T05:09:00.099Z,96544.63
2023-01-19T05:11:02.234Z,96545.50
2023-01-19T05:13:04.352Z,96544.06
2023-01-19T05:15:07.717Z,96536.63
2023-01-19T05:17:09.035Z,96534.34
2023-01-19T05:19:10.377Z,96534.53
2023-01-19T05:21:11.712Z,96536.25
2023-01-19T05:23:13.066Z,96543.03
2023-01-19T05:25:14.418Z,96536.13
2023-01-19T05:27:15.731Z,96540.13
2023-01-19T05:29:17.073Z,96541.63
2023-01-19T05:31:19.587Z,96540.34
2023-01-19T05:33:21.752Z,96547.59
2023-01-19T05:35:35.314Z,96545.47
2023-01-19T05:37:37.748Z,96539.81
2023-01-19T05:39:39.057Z,96541.88
2023-01-19T05:41:42.106Z,96543.13
2023-01-19T05:43:43.679Z,96541.03
2023-01-19T05:45:45.585Z,96542.25
2023-01-19T05:47:46.959Z,96542.88
2023-01-19T05:49:48.301Z,96548.47
2023-01-19T05:51:49.633Z,96558.22
2023-01-19T05:53:50.933Z,96556.00
2023-01-19T05:55:52.307Z,96557.28
2023-01-19T05:57:53.628Z,96566.91
2023-01-19T05:59:54.967Z,96568.44
2023-01-19T06:01:57.181Z,96577.34
2023-01-19T06:03:58.697Z,96572.00
2023-01-19T06:06:02.969Z,96575.78
2023-01-19T06:08:04.330Z,96579.09
2023-01-19T06:10:05.803Z,96575.97
2023-01-19T06:12:07.183Z,96582.34
2023-01-19T06:14:08.636Z,96578.63
2023-01-19T06:16:10.681Z,96575.56
2023-01-19T06:18:12.508Z,96575.78
2023-01-19T06:20:16.851Z,96573.59
2023-01-19T06:22:18.238Z,96578.28
2023-01-19T06:24:20.189Z,96579.63
2023-01-19T06:26:21.633Z,96580.19
2023-01-19T06:28:23.698Z,96575.56
2023-01-19T06:30:25.033Z,96566.66
2023-01-19T06:32:26.344Z,96578.94
2023-01-19T06:34:29.016Z,96586.38
2023-01-19T06:36:30.398Z,96584.50
2023-01-19T06:38:32.924Z,96579.25
2023-01-19T06:40:34.262Z,96580.28
2023-01-19T06:42:35.642Z,96583.19
2023-01-19T06:44:36.958Z,96580.13
2023-01-19T06:46:38.305Z,96593.03
2023-01-19T06:48:39.607Z,96592.59
2023-01-19T06:50:41.313Z,96598.97
2023-01-19T06:52:42.839Z,96601.00
2023-01-19T06:54:45.491Z,96597.97
2023-01-19T06:56:46.866Z,96605.13
2023-01-19T06:58:48.234Z,96601.16
2023-01-19T07:00:50.529Z,96613.38
2023-01-19T07:02:51.965Z,96612.81
2023-01-19T07:04:53.418Z,96618.13
2023-01-19T07:06:54.748Z,96614.22
2023-01-19T07:08:56.112Z,96612.00
2023-01-19T07:11:25.246Z,96624.91
2023-01-19T07:13:18.682Z,96621.75
2023-01-19T07:15:22.642Z,96621.81
2023-01-19T07:17:24.018Z,96472.78
2023-01-19T07:19:25.320Z,96627.91
2023-01-19T07:21:29.070Z,96635.56
2023-01-19T07:23:30.829Z,96642.41
2023-01-19T07:25:32.118Z,96644.06
2023-01-19T07:27:33.462Z,96641.50
2023-01-19T07:29:34.932Z,96640.63
2023-01-19T07:31:36.539Z,96633.59
2023-01-19T07:33:41.099Z,96636.78
2023-01-19T07:35:42.540Z,96639.84
2023-01-19T07:37:43.927Z,96645.25
2023-01-19T07:39:45.264Z,96639.56
2023-01-19T07:41:46.599Z,96640.91
2023-01-19T07:43:47.976Z,96637.88
2023-01-19T07:45:49.388Z,96637.38
2023-01-19T07:47:51.160Z,96630.09
2023-01-19T07:49:53.232Z,96634.09
2023-01-19T07:51:56.349Z,96639.88
2023-01-19T07:53:58.295Z,96643.06
2023-01-19T07:55:59.606Z,96644.81
2023-01-19T07:58:01.002Z,96646.41
2023-01-19T08:00:03.914Z,96642.03
2023-01-19T08:02:05.617Z,96646.41
2023-01-19T08:04:07.146Z,96652.25
2023-01-19T08:06:08.509Z,96644.63
2023-01-19T08:08:11.545Z,96646.66
2023-01-19T08:10:12.987Z,96645.97
2023-01-19T08:12:14.454Z,96636.09
2023-01-19T08:14:15.773Z,96646.56
2023-01-19T08:16:17.075Z,96646.03
2023-01-19T08:18:18.564Z,96644.53
2023-01-19T08:20:19.893Z,96648.09
2023-01-19T08:22:21.227Z,96641.50
2023-01-19T08:24:22.948Z,96654.44
2023-01-19T08:26:27.323Z,96658.91
2023-01-19T08:28:28.661Z,96648.91
2023-01-19T08:30:30.473Z,96655.00
2023-01-19T08:32:32.710Z,96651.03
2023-01-19T08:34:34.146Z,96675.81
2023-01-19T08:36:35.501Z,96663.13
2023-01-19T08:38:36.853Z,96661.59
2023-01-19T08:40:38.287Z,96663.31
2023-01-19T08:42:39.585Z,96665.94
2023-01-19T08:44:49.702Z,96668.63
2023-01-19T08:46:58.312Z,96667.88
2023-01-19T08:48:59.612Z,96665.44
2023-01-19T08:51:00.905Z,96668.88
2023-01-19T08:53:02.601Z,96675.66
2023-01-19T08:55:04.310Z,96668.78
2023-01-19T08:57:05.659Z,96667.78
2023-01-19T08:59:10.425Z,96682.72
2023-01-19T09:01:14.899Z,96680.59
2023-01-19T09:03:16.334Z,96686.22
2023-01-19T09:05:17.690Z,96690.75
2023-01-19T09:07:19.033Z,96693.78
2023-01-19T09:09:20.333Z,96695.84
2023-01-19T09:11:21.666Z,96689.50
2023-01-19T09:13:22.984Z,96695.19
2023-01-19T09:15:24.290Z,96716.38
2023-01-19T09:17:25.642Z,96709.47
2023-01-19T09:19:26.944Z,96705.94
2023-01-19T09:21:28.938Z,96708.44
2023-01-19T09:23:30.239Z,96705.88
2023-01-19T09:25:31.622Z,96706.03
2023-01-19T09:27:32.932Z,96712.16
2023-01-19T09:29:34.269Z,96707.03
2023-01-19T09:31:35.670Z,96708.97
2023-01-19T09:33:37.277Z,96710.91
2023-01-19T09:35:38.568Z,96707.66
2023-01-19T09:37:40.096Z,96716.41
2023-01-19T09:39:41.519Z,96714.00
2023-01-19T09:41:42.866Z,96703.13
2023-01-19T09:43:45.509Z,96701.56
2023-01-19T09:45:46.814Z,96694.97
2023-01-19T09:47:48.628Z,96695.00
2023-01-19T09:49:49.999Z,96695.97
2023-01-19T09:51:51.427Z,96688.38
2023-01-19T09:53:52.841Z,96690.25
2023-01-19T09:55:54.494Z,96699.72
2023-01-19T09:57:55.796Z,96691.19
2023-01-19T10:00:00.022Z,96695.41
2023-01-19T10:02:02.196Z,96690.38
2023-01-19T10:04:03.804Z,96687.81
2023-01-19T10:06:05.195Z,96695.47
2023-01-19T10:08:08.552Z,96687.88
2023-01-19T10:10:09.852Z,96693.00
2023-01-19T10:12:11.178Z,96687.19
2023-01-19T10:14:12.514Z,96690.69
2023-01-19T10:16:14.395Z,96693.28
2023-01-19T10:18:15.752Z,96687.31
2023-01-19T10:20:18.005Z,96690.69
2023-01-19T10:22:19.318Z,96695.59
2023-01-19T10:24:20.640Z,96692.66
2023-01-19T10:26:21.951Z,96694.88
2023-01-19T10:28:23.299Z,96695.16
2023-01-19T10:30:24.662Z,96704.19
2023-01-19T10:32:26.118Z,96702.16
2023-01-19T10:34:27.545Z,96702.84
2023-01-19T10:36:29.550Z,96695.69
2023-01-19T10:38:33.158Z,96692.16
2023-01-19T10:40:34.575Z,96698.22
2023-01-19T10:42:35.910Z,96694.75
2023-01-19T10:44:37.285Z,96687.94
2023-01-19T10:46:38.921Z,96691.41
2023-01-19T10:48:40.239Z,96693.00
2023-01-19T10:50:41.557Z,96689.50
2023-01-19T10:52:44.780Z,96686.97
2023-01-19T10:54:48.449Z,96687.09
2023-01-19T10:56:49.902Z,96688.97
2023-01-19T10:58:51.231Z,96689.16
2023-01-19T11:00:52.728Z,96694.56
2023-01-19T11:02:54.152Z,96703.38
2023-01-19T11:04:55.603Z,96694.25
2023-01-19T11:06:56.929Z,96703.81
2023-01-19T11:08:58.268Z,96701.56
2023-01-19T11:10:59.600Z,96700.06
2023-01-19T11:13:01.517Z,96707.06
2023-01-19T11:15:03.140Z,96711.50
2023-01-19T11:17:04.445Z,96714.22
2023-01-19T11:19:05.845Z,96715.25
2023-01-19T11:21:07.186Z,96717.09
2023-01-19T11:23:08.498Z,96711.31
2023-01-19T11:25:09.826Z,96705.41
2023-01-19T11:27:11.118Z,96711.47
2023-01-19T11:29:12.419Z,96711.59
2023-01-19T11:31:13.832Z,96718.50
2023-01-19T11:33:15.214Z,96713.50
2023-01-19T11:35:16.532Z,96713.50
2023-01-19T11:37:18.109Z,96706.75
2023-01-19T11:39:20.404Z,96708.41
2023-01-19T11:41:21.735Z,96711.59
2023-01-19T11:43:23.051Z,96708.88
2023-01-19T11:45:24.403Z,96699.31
2023-01-19T11:47:25.771Z,96706.44
2023-01-19T11:49:27.110Z,96701.16
2023-01-19T11:51:28.762Z,96702.47
2023-01-19T11:53:30.091Z,96698.78
2023-01-19T11:55:31.441Z,96706.22
2023-01-19T11:57:32.739Z,96706.00
2023-01-19T11:59:34.034Z,96695.69
2023-01-19T12:01:35.385Z,96690.47
2023-01-19T12:03:36.705Z,96694.75
2023-01-19T12:05:38.050Z,96688.75
2023-01-19T12:07:39.457Z,96693.03
2023-01-19T12:09:42.729Z,96691.44
2023-01-19T12:11:44.101Z,96689.00
2023-01-19T12:13:45.424Z,96696.78
2023-01-19T12:15:46.769Z,96687.41
2023-01-19T12:17:48.097Z,96686.66
2023-01-19T12:19:53.978Z,96676.69
2023-01-19T12:21:56.093Z,96671.81
2023-01-19T12:23:57.536Z,96681.41
2023-01-19T12:25:58.888Z,96672.28
2023-01-19T12:28:00.345Z,96669.91
2023-01-19T12:30:01.640Z,96666.63
2023-01-19T12:32:02.975Z,96668.47
2023-01-19T12:34:04.326Z,96669.44
2023-01-19T12:36:08.487Z,96667.13
2023-01-19T12:38:09.789Z,96669.00
2023-01-19T12:40:11.364Z,96665.66
2023-01-19T12:42:12.961Z,96662.50
2023-01-19T12:44:16.070Z,96658.34
2023-01-19T12:46:17.414Z,96658.47
2023-01-19T12:48:18.722Z,96656.00
2023-01-19T12:50:21.123Z,96663.69
2023-01-19T12:52:22.457Z,96658.59
2023-01-19T12:54:23.802Z,96650.19
2023-01-19T12:56:25.140Z,96658.59
2023-01-19T12:58:26.503Z,96655.22
2023-01-19T13:00:27.803Z,96657.59
2023-01-19T13:02:29.161Z,96653.88
2023-01-19T13:04:30.461Z,96656.19
2023-01-19T13:06:31.755Z,96651.56
2023-01-19T13:08:34.831Z,96654.72
2023-01-19T13:10:36.127Z,96647.56
2023-01-19T13:12:37.480Z,96649.78
2023-01-19T13:14:38.777Z,96649.34
2023-01-19T13:16:40.111Z,96641.63
2023-01-19T13:18:41.688Z,96643.03
2023-01-19T13:20:43.035Z,96646.44
2023-01-19T13:22:44.327Z,96645.41
2023-01-19T13:24:45.720Z,96638.50
2023-01-19T13:26:47.019Z,96639.41
2023-01-19T13:28:48.929Z,96638.78
2023-01-19T13:30:50.346Z,96646.75
2023-01-19T13:32:51.761Z,96642.13
2023-01-19T13:34:53.064Z,96641.81
2023-01-19T13:36:54.413Z,96644.75
2023-01-19T13:38:55.741Z,96645.97
2023-01-19T13:40:57.044Z,96647.00
2023-01-19T13:42:58.359Z,96650.66
2023-01-19T13:44:59.744Z,96643.16
2023-01-19T13:47:01.327Z,96653.44
2023-01-19T13:49:02.652Z,96645.84
2023-01-19T13:51:04.254Z,96648.53
2023-01-19T13:53:06.067Z,96648.53
2023-01-19T13:55:09.482Z,96648.66
2023-01-19T13:57:11.050Z,96652.06
2023-01-19T13:59:12.660Z,96652.09
2023-01-19T14:01:14.106Z,96647.00
2023-01-19T14:03:15.678Z,96648.78
2023-01-19T14:05:17.052Z,96657.28
2023-01-19T14:07:23.407Z,96652.97
2023-01-19T14:09:25.081Z,96654.59
2023-01-19T14:11:26.472Z,96655.41
2023-01-19T14:13:29.530Z,96660.25
2023-01-19T14:15:30.898Z,96661.00
2023-01-19T14:17:32.585Z,96661.53
2023-01-19T14:19:34.067Z,96662.16
2023-01-19T14:21:35.493Z,96662.75
2023-01-19T14:23:36.842Z,96664.34
2023-01-19T14:25:39.618Z,96671.66
2023-01-19T14:27:40.907Z,96547.19
2023-01-19T14:29:43.776Z,96673.88
2023-01-19T14:31:45.112Z,96673.75
2023-01-19T14:33:47.104Z,96673.50
2023-01-19T14:35:48.471Z,96672.53
2023-01-19T14:37:49.805Z,96673.16
2023-01-19T14:39:51.196Z,96672.28
2023-01-19T14:41:52.806Z,96668.84
2023-01-19T14:43:55.969Z,96673.94
2023-01-19T14:45:57.859Z,96672.41
2023-01-19T14:47:59.638Z,96674.06
2023-01-19T14:50:01.159Z,96675.84
2023-01-19T14:52:02.510Z,96677.66
2023-01-19T14:54:03.866Z,96679.44
2023-01-19T14:56:05.213Z,96673.06
2023-01-19T14:58:06.545Z,96678.34
2023-01-19T15:00:08.091Z,96673.47
2023-01-19T15:02:09.571Z,96681.25
2023-01-19T15:04:14.033Z,96682.19
2023-01-19T15:06:15.366Z,96684.88
2023-01-19T15:08:16.716Z,96682.53
2023-01-19T15:10:18.058Z,96679.34
2023-01-19T15:12:20.706Z,96683.81
2023-01-19T15:14:22.084Z,96677.09
2023-01-19T15:16:26.196Z,96684.06
2023-01-19T15:18:27.577Z,96681.53
2023-01-19T15:20:28.916Z,96691.81
2023-01-19T15:22:30.280Z,96689.41
2023-01-19T15:24:31.666Z,96689.47
2023-01-19T15:26:32.996Z,96690.44
2023-01-19T15:28:34.357Z,96683.59
2023-01-19T15:30:35.684Z,96696.34
2023-01-19T15:32:39.064Z,96693.75
2023-01-19T15:34:40.414Z,96695.25
2023-01-19T15:36:42.601Z,96692.59
2023-01-19T15:38:44.183Z,96688.91
2023-01-19T15:40:46.948Z,96697.06
2023-01-19T15:42:49.271Z,96697.59
2023-01-19T15:44:50.638Z,96704.09
2023-01-19T15:46:54.533Z,96706.31
2023-01-19T15:48:55.999Z,96711.28
2023-01-19T15:51:00.101Z,96707.72
2023-01-19T15:53:02.225Z,96710.13
2023-01-19T15:55:03.527Z,96712.53
2023-01-19T15:57:04.926Z,96715.72
2023-01-19T15:59:06.230Z,96716.50
2023-01-19T16:01:07.704Z,96719.84
2023-01-19T16:03:09.155Z,96720.63
2023-01-19T16:05:10.702Z,96725.59
2023-01-19T16:07:12.609Z,96727.53
2023-01-19T16:09:18.415Z,96722.50
2023-01-19T16:11:19.702Z,96727.69
2023-01-19T16:13:21.002Z,96732.22
2023-01-19T16:15:23.677Z,96736.69
2023-01-19T16:17:25.079Z,96736.19
2023-01-19T16:19:26.468Z,96738.84
2023-01-19T16:21:28.105Z,96740.78
2023-01-19T16:23:29.441Z,96740.13
2023-01-19T16:25:31.120Z,96746.22
2023-01-19T16:27:32.418Z,96744.63
2023-01-19T16:29:39.400Z,96755.13
2023-01-19T16:31:43.559Z,96752.72
2023-01-19T16:33:44.904Z,96753.81
2023-01-19T16:35:46.195Z,96762.97
2023-01-19T16:37:47.519Z,96750.53
2023-01-19T16:39:49.840Z,96757.34
2023-01-19T16:41:54.058Z,96756.66
2023-01-19T16:43:55.386Z,96762.38
2023-01-19T16:45:58.021Z,96759.53
2023-01-19T16:47:59.458Z,96760.63
2023-01-19T16:50:03.873Z,96763.66
2023-01-19T16:52:05.256Z,96772.06
2023-01-19T16:54:06.614Z,96764.53
2023-01-19T16:56:07.942Z,96764.41
2023-01-19T16:58:09.444Z,96755.72
2023-01-19T17:00:10.962Z,96767.25
2023-01-19T17:02:12.570Z,96770.19
2023-01-19T17:04:13.991Z,96766.94
2023-01-19T17:06:15.278Z,96767.56
2023-01-19T17:08:16.678Z,96775.44
2023-01-19T17:10:20.912Z,96778.09
2023-01-19T17:12:22.302Z,96776.81
2023-01-19T17:14:23.682Z,96778.28
2023-01-19T17:16:25.068Z,96777.13
2023-01-19T17:18:26.411Z,96781.47
2023-01-19T17:20:27.704Z,96776.06
2023-01-19T17:22:29.006Z,96783.00
2023-01-19T17:24:30.395Z,96782.81
2023-01-19T17:26:34.549Z,96780.47
2023-01-19T17:28:35.851Z,96796.19
2023-01-19T17:30:37.321Z,96791.34
2023-01-19T17:32:38.714Z,96785.47
2023-01-19T17:34:40.062Z,96793.09
2023-01-19T17:36:41.399Z,96791.78
2023-01-19T17:38:42.846Z,96789.22
2023-01-19T17:40:44.237Z,96794.25
2023-01-19T17:42:45.559Z,96795.59
2023-01-19T17:44:46.864Z,96796.28
2023-01-19T17:46:48.595Z,96808.13
2023-01-19T17:48:49.931Z,96809.50
2023-01-19T17:50:51.218Z,96814.81
2023-01-19T17:52:55.534Z,96810.50
2023-01-19T17:54:57.094Z,96815.91
2023-01-19T17:56:58.449Z,96814.31
2023-01-19T17:58:59.824Z,96820.41
2023-01-19T18:01:01.176Z,96813.63
2023-01-19T18:03:02.573Z,96811.22
2023-01-19T18:05:03.925Z,96818.63
2023-01-19T18:07:05.331Z,96810.47
2023-01-19T18:09:07.398Z,96815.63
2023-01-19T18:11:08.782Z,96815.00
2023-01-19T18:13:10.949Z,96816.56
2023-01-19T18:15:16.912Z,96826.69
2023-01-19T18:17:18.615Z,96833.03
2023-01-19T18:19:22.176Z,96827.22
2023-01-19T18:21:23.636Z,96834.00
2023-01-19T18:23:24.982Z,96832.28
2023-01-19T18:25:26.293Z,96840.66
2023-01-19T18:27:29.147Z,96836.50
2023-01-19T18:29:30.575Z,96831.59
2023-01-19T18:31:32.027Z,96825.88
2023-01-19T18:33:37.062Z,96836.66
2023-01-19T18:35:38.365Z,96825.16
2023-01-19T18:37:39.685Z,96837.41
2023-01-19T18:39:41.073Z,96829.88
2023-01-19T18:41:42.439Z,96834.66
2023-01-19T18:43:46.783Z,96835.28
2023-01-19T18:45:51.799Z,96830.91
2023-01-19T18:47:53.111Z,96832.50
2023-01-19T18:49:54.411Z,96834.81
2023-01-19T18:51:56.154Z,96837.13
2023-01-19T18:53:57.594Z,96838.63
2023-01-19T18:55:58.994Z,96839.25
2023-01-19T18:58:00.358Z,96839.91
2023-01-19T19:00:02.167Z,96838.81
2023-01-19T19:02:06.741Z,96840.88
2023-01-19T19:04:08.496Z,96839.44
2023-01-19T19:06:09.889Z,96840.53
2023-01-19T19:08:11.198Z,96849.22
2023-01-19T19:10:12.703Z,96850.19
2023-01-19T19:12:14.153Z,96853.59
2023-01-19T19:14:15.487Z,96852.75
2023-01-19T19:16:16.825Z,96858.69
2023-01-19T19:18:20.945Z,96863.41
2023-01-19T19:20:23.379Z,96865.88
2023-01-19T19:22:25.644Z,96871.13
2023-01-19T19:24:27.078Z,96871.41
2023-01-19T19:26:28.619Z,96867.75
2023-01-19T19:28:32.900Z,96869.97
2023-01-19T19:30:34.621Z,96872.06
2023-01-19T19:32:36.006Z,96862.50
2023-01-19T19:34:37.337Z,96870.78
2023-01-19T19:36:41.605Z,96869.81
2023-01-19T19:38:45.015Z,96869.69
2023-01-19T19:40:46.310Z,96877.34
2023-01-19T19:42:47.601Z,96869.75
2023-01-19T19:44:48.895Z,96865.47
2023-01-19T19:46:50.284Z,96870.91
2023-01-19T19:48:51.664Z,96870.72
2023-01-19T19:50:53.671Z,96875.19
2023-01-19T19:53:00.949Z,96864.66
2023-01-19T19:55:02.283Z,96870.91
2023-01-19T19:57:03.668Z,96867.72
2023-01-19T19:59:05.085Z,96870.09
2023-01-19T20:01:06.552Z,96869.97
2023-01-19T20:03:13.414Z,96876.47
2023-01-19T20:05:14.715Z,96879.88
2023-01-19T20:07:17.937Z,96876.69
2023-01-19T20:09:19.344Z,96879.25
2023-01-19T20:11:20.701Z,96878.66
2023-01-19T20:13:22.183Z,96875.91
2023-01-19T20:15:23.523Z,96885.22
2023-01-19T20:17:24.828Z,96887.66
2023-01-19T20:19:26.208Z,96888.41
2023-01-19T20:21:30.338Z,96882.91
2023-01-19T20:23:31.646Z,96889.69
2023-01-19T20:25:35.618Z,96897.38
2023-01-19T20:27:36.911Z,96891.03
2023-01-19T20:29:38.242Z,96891.75
2023-01-19T20:31:39.588Z,96887.44
2023-01-19T20:33:49.826Z,96890.00
2023-01-19T20:35:51.997Z,96888.69
2023-01-19T20:37:53.292Z,96891.09
2023-01-19T20:39:54.594Z,96896.69
2023-01-19T20:41:58.798Z,96891.19
2023-01-19T20:44:00.203Z,96896.69
2023-01-19T20:46:02.276Z,96891.09
2023-01-19T20:48:03.620Z,96883.72
2023-01-19T20:50:04.973Z,96897.66
2023-01-19T20:52:06.367Z,96897.16
2023-01-19T20:54:07.854Z,96900.03
2023-01-19T20:56:09.307Z,96899.44
2023-01-19T20:58:10.636Z,96909.97
2023-01-19T21:00:11.989Z,96904.22
2023-01-19T21:02:15.060Z,96901.84
2023-01-19T21:04:19.524Z,96894.31
2023-01-19T21:06:20.905Z,96894.50
2023-01-19T21:08:22.227Z,96893.78
2023-01-19T21:10:23.532Z,96896.19
2023-01-19T21:12:24.863Z,96900.03
2023-01-19T21:14:26.166Z,96903.25
2023-01-19T21:16:30.529Z,96907.88
2023-01-19T21:18:32.132Z,96913.53
2023-01-19T21:20:33.427Z,96911.94
2023-01-19T21:22:34.769Z,96914.09
2023-01-19T21:24:36.156Z,96913.38
2023-01-19T21:26:37.846Z,96909.38
2023-01-19T21:28:39.174Z,96916.78
2023-01-19T21:30:40.517Z,96919.81
2023-01-19T21:32:41.860Z,96919.03
2023-01-19T21:34:43.192Z,96921.28
2023-01-19T21:36:44.729Z,96918.03
2023-01-19T21:38:46.037Z,96916.03
2023-01-19T21:40:47.397Z,96913.63
2023-01-19T21:42:48.734Z,96921.63
2023-01-19T21:44:50.097Z,96921.19
2023-01-19T21:46:51.448Z,96923.97
2023-01-19T21:48:52.789Z,96920.81
2023-01-19T21:50:54.088Z,96927.38
2023-01-19T21:52:55.414Z,96920.38
2023-01-19T21:54:56.728Z,96915.47
2023-01-19T21:56:58.114Z,96921.66
2023-01-19T21:59:02.256Z,96924.31
2023-01-19T22:01:03.681Z,96926.13
2023-01-19T22:03:05.276Z,96930.63
2023-01-19T22:05:06.718Z,96928.97
2023-01-19T22:07:08.114Z,96926.63
2023-01-19T22:09:09.476Z,96922.16
2023-01-19T22:11:10.776Z,96923.41
2023-01-19T22:13:12.114Z,96915.28
2023-01-19T22:15:13.688Z,96918.50
2023-01-19T22:17:27.402Z,96918.78
2023-01-19T22:19:28.745Z,96928.41
2023-01-19T22:21:30.080Z,96928.69
2023-01-19T22:23:31.383Z,96923.09
2023-01-19T22:25:32.717Z,96920.19
2023-01-19T22:27:34.049Z,96920.56
2023-01-19T22:29:35.350Z,96934.84
2023-01-19T22:31:36.763Z,96933.59
2023-01-19T22:33:38.139Z,96933.50
2023-01-19T22:35:39.478Z,96933.09
2023-01-19T22:37:40.783Z,96936.31
2023-01-19T22:39:43.365Z,96931.63
2023-01-19T22:41:44.895Z,96942.25
2023-01-19T22:43:46.226Z,96939.28
2023-01-19T22:45:47.614Z,96934.50
2023-01-19T22:47:49.020Z,96940.00
2023-01-19T22:49:50.314Z,96934.25
2023-01-19T22:51:54.007Z,96942.13
2023-01-19T22:53:55.356Z,96931.25
2023-01-19T22:55:56.649Z,96935.03
2023-01-19T22:57:57.988Z,96932.72
2023-01-19T22:59:59.284Z,96924.50
2023-01-19T23:02:00.806Z,96933.28
2023-01-19T23:04:02.556Z,96947.13
2023-01-19T23:06:04.353Z,96931.03
2023-01-19T23:08:05.638Z,96923.56
2023-01-19T23:10:06.968Z,96927.97
2023-01-19T23:12:08.286Z,96924.72
2023-01-19T23:14:11.475Z,96926.66
2023-01-19T23:16:12.824Z,96930.16
2023-01-19T23:18:14.134Z,96937.03
2023-01-19T23:20:15.483Z,96938.94
2023-01-19T23:22:16.791Z,96939.09
2023-01-19T23:24:18.095Z,96950.28
2023-01-19T23:26:19.581Z,96942.72
2023-01-19T23:28:20.884Z,96943.56
2023-01-19T23:30:22.299Z,96946.13
2023-01-19T23:32:23.659Z,96953.72
2023-01-19T23:34:24.980Z,96955.44
2023-01-19T23:36:26.302Z,96957.94
2023-01-19T23:38:27.643Z,96962.91
2023-01-19T23:40:29.018Z,96955.91
2023-01-19T23:42:30.315Z,96956.47
2023-01-19T23:44:31.643Z,96960.50
2023-01-19T23:46:33.000Z,96961.03
2023-01-19T23:48:34.346Z,96958.25
2023-01-19T23:50:35.802Z,96955.47
2023-01-19T23:52:37.106Z,96957.75